This is the latest recevied weather packets stored in our database for station/object KN6CRX. If no packets are shown the sender has not sent any weather packets the latest 10 day(s).
| Time | Temp. | Humidity | Pressure | Rain* | Wind** | Luminosity | Snow |
|---|---|---|---|---|---|---|---|
| 1787968160 | 18.33° C | 80% | 1020.1 hPa | 0 mm | - | 3 W/m² | - |
| 1787967859 | 18.33° C | 81% | 1020.3 hPa | 0 mm | - | 4 W/m² | - |
| 1787967557 | 18.33° C | 79% | 1020.5 hPa | 0 mm | - | 7 W/m² | - |
| 1787967256 | 18.33° C | 81% | 1020.2 hPa | 3.05 mm | - | 13 W/m² | - |
| 1787966953 | 18.89° C | 81% | 1020.2 hPa | 18.03 mm | - | 7 W/m² | - |
| 1787966650 | 19.44° C | 76% | 1020 hPa | 19.81 mm | - | 10 W/m² | - |
| 1787966349 | 21.67° C | 63% | 1019.7 hPa | 4.32 mm | - | 6 W/m² | - |
| 1787966044 | 22.78° C | 54% | 1018.9 hPa | 0 mm | - | 7 W/m² | - |
| 1787965743 | 22.78° C | 51% | 1017.9 hPa | 0 mm | - | 11 W/m² | - |
| 1787965444 | 23.33° C | 49% | 1017.7 hPa | 0 mm | - | 17 W/m² | - |
| 1787965143 | 23.33° C | 49% | 1017.6 hPa | 0 mm | - | 28 W/m² | - |
| 1787964838 | 23.89° C | 48% | 1017.6 hPa | 0 mm | - | 33 W/m² | - |
| 1787964533 | 25° C | 46% | 1017.5 hPa | 0 mm | - | 36 W/m² | - |
| 1787964228 | 26.11° C | 42% | 1017.5 hPa | 0 mm | - | 64 W/m² | - |
| 1787963927 | 26.11° C | 42% | 1017.4 hPa | 0 mm | - | 88 W/m² | - |
| 1787963622 | 26.11° C | 42% | 1017.4 hPa | 0 mm | - | 77 W/m² | - |
| 1787963317 | 26.67° C | 42% | 1017.4 hPa | 0 mm | - | 39 W/m² | - |
| 1787963016 | 26.67° C | 42% | 1017.4 hPa | 0 mm | - | 53 W/m² | - |
| 1787962711 | 26.67° C | 41% | 1017.2 hPa | 0 mm | - | 65 W/m² | - |
| 1787962411 | 27.22° C | 40% | 1017.5 hPa | 0 mm | - | 43 W/m² | - |
| 1787962109 | 27.22° C | 39% | 1017.4 hPa | 0 mm | - | 51 W/m² | - |
| 1787961804 | 27.78° C | 39% | 1017.4 hPa | 0 mm | - | 121 W/m² | - |
| 1787961502 | 27.22° C | 41% | 1017.4 hPa | 0 mm | - | 129 W/m² | - |
| 1787961203 | 27.22° C | 40% | 1017.5 hPa | 0 mm | - | 109 W/m² | - |
| 1787960902 | 27.22° C | 39% | 1017.5 hPa | 0 mm | - | 116 W/m² | - |
* Rain latest hour (hover to see other rain measurements)
** Current wind speed in m/s (hover to see current wind gust speed)